Aérodrome :
LOGIN :

S'inscrire | Disclaimer

   EN    FR    IT 

 










Légende :    VFR   VFR Marginal   IFR   IFR Intensif   IFR Très Intensif
Visi : 
Plafond : 
>= 8 km
>= 3000ft
5 à 8 km
1000 à 3000 ft
1500m à 5 km
500 à 1000 ft
800 à 1500m
200 à 500 ft
< 800m
< 200 ft
Symboles :   Orages  Brouillard  Fortes neiges  Fortes précipitations  Vent > 20 kt
SIGMETs :   Divers  Orages  Givrage  Turbulence  Onde Orograph.  Cendres Volcan.






- Altitude de l'aérodrome : 36 ft
- Code IATA : LTQ


LFAT - Le Touquet

DERNIER METAR :
  • 181900Z AUTO 21001KT CAVOK 01/00 Q1031

METARs EXPIRÉS :
  • 181830Z AUTO 00000KT CAVOK 02/01 Q1031
  • 181800Z AUTO 00000KT CAVOK 02/01 Q1030 NOSIG
  • 181730Z AUTO 00000KT CAVOK 03/02 Q1030 NOSIG
  • 181700Z AUTO 00000KT 9999 FEW027 03/02 Q1030 NOSIG
  • 181630Z AUTO 00000KT 9999 FEW026 05/02 Q1030 NOSIG

TAF TAF LFAT
Valide du 18 à 15h jusqu'au 19 à 00h UTC


181400Z 1815/1824 31008KT 9999 SCT020
ATIS : +33 3 21 06 62 84



MET'MAP, la Météo Aéronautique d'un coup d'oeil ! - Copyright ORBIFLY Décembre 2007 - Disclaimer

ORBIFLY MET'MAP TEAM :

Programmation & Développement : Alexandra Zaïnal
Sur une idée originale de : Baudouin d'Aumeries
Assistance à la programmation : Marc-Olivier Méhu
Soutien technique & logistique : Manuel Goepfert

Contact : metmap@orbifly.com




SOURCES & CREDITS :

   NOAA